CheckWX is a tool to help pilots better visualize weather data.  It is not intended as a substitute for an official pre-flight weather briefing.

20:42:42 UTC

KLGF METAR
Laguna AAF (Yuma Proving Ground) Airport
Yuma Proving Ground(Yuma), Arizona, USA
Current

45 mins ago

KLGF 201958Z AUTO 21007KT 10SM CLR 32/00 A2978 RMK AO2 SLPNO T03170001 $
Observed
Apr-20 @ 19:58 UTC
Wind
  • 210° at 7 KTS
Visibility
10 SM
Flight Rules
VFR
Cloud Levels
  • Clear skies
Temperature
32°C / 90°F
Dewpoint
C / 32°F
Humidity
13%
Altimeter
29.78" Hg
Pressure
1008.42 hPa
Previous

2 hours ago

KLGF 201858Z AUTO 25010G19KT 10SM CLR 31/M02 A2979 RMK AO2 SLPNO T03091018 $
Observed
Apr-20 @ 18:58 UTC
Wind
  • 250° at 10 KTS
  • Gusting to 19 KTS
Visibility
10 SM
Flight Rules
VFR
Cloud Levels
  • Clear skies
Temperature
31°C / 88°F
Dewpoint
-2°C / 28°F
Humidity
12%
Altimeter
29.79" Hg
Pressure
1008.82 hPa
Previous

3 hours ago

KLGF 201758Z AUTO 26013G19KT 10SM CLR 30/M03 A2980 RMK AO2 SLPNO T02991030 10300 20192 50004 $
Observed
Apr-20 @ 17:58 UTC
Wind
  • 260° at 13 KTS
  • Gusting to 19 KTS
Visibility
10 SM
Flight Rules
VFR
Cloud Levels
  • Clear skies
Temperature
30°C / 86°F
Dewpoint
-3°C / 27°F
Humidity
11%
Altimeter
29.8" Hg
Pressure
1009.12 hPa